createdAt,value
2022-08-11T11:18:39.980Z,32.15
2022-08-11T11:19:39.956Z,32.63
2022-08-11T11:20:43.708Z,32.96
2022-08-11T11:21:42.421Z,33.22
2022-08-11T11:22:40.197Z,33.31
2022-08-11T11:23:39.912Z,33.28
2022-08-11T11:24:39.913Z,33.68
2022-08-11T11:25:39.905Z,33.45
2022-08-11T11:26:39.885Z,33.12
2022-08-11T11:27:46.644Z,32.81
2022-08-11T11:28:39.852Z,33.11
2022-08-11T11:29:39.841Z,33.15
2022-08-11T11:30:39.845Z,32.87
2022-08-11T11:31:39.839Z,33.19
2022-08-11T11:32:40.026Z,33.50
2022-08-11T11:34:06.868Z,33.90
2022-08-11T11:34:48.013Z,34.19
2022-08-11T11:35:39.803Z,34.21
2022-08-11T11:36:39.772Z,34.46
2022-08-11T11:37:39.761Z,34.39
2022-08-11T11:38:39.767Z,35.02
2022-08-11T11:39:39.889Z,34.96
2022-08-11T11:40:39.754Z,35.06
2022-08-11T11:41:39.725Z,34.40
2022-08-11T11:42:40.030Z,34.89
2022-08-11T11:43:39.701Z,34.92
2022-08-11T11:44:39.713Z,34.37
2022-08-11T11:45:39.691Z,33.14
2022-08-11T11:46:39.685Z,32.57
2022-08-11T11:47:39.671Z,32.41
2022-08-11T11:48:39.654Z,32.79
2022-08-11T11:49:39.643Z,32.85
2022-08-11T11:50:39.655Z,33.39
2022-08-11T11:51:39.622Z,33.09
2022-08-11T11:52:39.883Z,32.69
2022-08-11T11:53:39.604Z,33.07
2022-08-11T11:54:39.598Z,33.90
2022-08-11T11:55:39.600Z,34.35
2022-08-11T11:56:39.580Z,33.94
2022-08-11T11:57:39.766Z,33.57
2022-08-11T11:58:39.558Z,33.44
2022-08-11T11:59:39.550Z,33.66
2022-08-11T12:00:43.316Z,33.34
2022-08-11T12:01:39.540Z,33.42
2022-08-11T12:02:39.522Z,33.75
2022-08-11T12:03:39.587Z,33.76
2022-08-11T12:04:39.504Z,33.49
2022-08-11T12:05:39.514Z,33.47
2022-08-11T12:06:39.484Z,33.91
2022-08-11T12:07:39.657Z,34.16
2022-08-11T12:08:39.468Z,34.52
2022-08-11T12:09:39.484Z,34.22
2022-08-11T12:10:39.459Z,34.84
2022-08-11T12:11:39.449Z,34.73
2022-08-11T12:12:39.438Z,34.85
2022-08-11T12:13:39.426Z,35.22
2022-08-11T12:14:39.412Z,35.56
2022-08-11T12:16:32.241Z,35.96
2022-08-11T12:16:39.395Z,35.28
2022-08-11T12:17:39.463Z,35.16
2022-08-11T12:18:39.383Z,33.76
2022-08-11T12:19:39.405Z,33.53
2022-08-11T12:20:39.368Z,34.06
2022-08-11T12:21:39.344Z,34.49
2022-08-11T12:22:39.340Z,34.58
2022-08-11T12:23:39.328Z,35.11
2022-08-11T12:24:39.330Z,35.55
2022-08-11T12:25:39.321Z,35.48
2022-08-11T12:26:39.302Z,35.36
2022-08-11T12:27:39.483Z,35.11
2022-08-11T12:28:39.297Z,35.53
2022-08-11T12:29:41.399Z,35.43
2022-08-11T12:30:39.354Z,35.16
2022-08-11T12:31:39.261Z,35.02
2022-08-11T12:32:39.367Z,35.26
2022-08-11T12:33:39.570Z,35.40
2022-08-11T12:34:39.281Z,35.68
2022-08-11T12:35:39.243Z,35.65
2022-08-11T12:36:39.226Z,35.74
2022-08-11T12:37:39.359Z,35.77
2022-08-11T12:38:39.205Z,36.23
2022-08-11T12:40:16.436Z,36.20
2022-08-11T12:41:11.838Z,35.93
2022-08-11T12:41:39.215Z,35.93
2022-08-11T12:42:39.170Z,35.89
2022-08-11T12:43:39.746Z,35.18
2022-08-11T12:44:39.146Z,34.96
2022-08-11T12:45:39.157Z,35.03
2022-08-11T12:46:39.160Z,35.70
2022-08-11T12:47:39.218Z,36.37
2022-08-11T12:49:00.971Z,36.56
2022-08-11T12:49:43.361Z,37.20
2022-08-11T12:50:39.119Z,37.57
2022-08-11T12:52:11.726Z,37.43
2022-08-11T12:52:46.680Z,37.39
2022-08-11T12:53:39.082Z,37.79
2022-08-11T12:54:39.171Z,36.95
2022-08-11T12:55:39.077Z,36.22
2022-08-11T12:56:39.064Z,36.19
2022-08-11T12:57:39.152Z,35.59
2022-08-11T12:58:39.084Z,35.14
2022-08-11T12:59:39.023Z,35.23
2022-08-11T13:00:39.122Z,35.53
2022-08-11T13:01:39.004Z,36.12
2022-08-11T13:02:43.902Z,36.51
2022-08-11T13:03:38.989Z,37.02
2022-08-11T13:04:39.014Z,37.00
2022-08-11T13:05:44.517Z,36.90
2022-08-11T13:06:38.967Z,36.29
2022-08-11T13:07:50.622Z,36.44
2022-08-11T13:08:38.969Z,36.81
2022-08-11T13:09:38.947Z,36.91
2022-08-11T13:10:38.958Z,36.51
2022-08-11T13:11:55.967Z,36.65
2022-08-11T13:12:39.124Z,36.44
2022-08-11T13:13:54.867Z,36.69
2022-08-11T13:14:38.935Z,37.00
2022-08-11T13:15:38.924Z,37.24
2022-08-11T13:16:38.889Z,36.49
2022-08-11T13:17:43.647Z,35.89
2022-08-11T13:18:38.882Z,35.81
2022-08-11T13:19:38.882Z,35.52
2022-08-11T13:20:38.878Z,36.32
2022-08-11T13:21:38.879Z,36.99
2022-08-11T13:22:39.172Z,36.81
2022-08-11T13:23:38.856Z,36.50
2022-08-11T13:24:38.844Z,36.00
2022-08-11T13:25:38.852Z,35.71
2022-08-11T13:26:47.829Z,35.90
2022-08-11T13:27:38.853Z,35.41
2022-08-11T13:28:38.807Z,35.58
2022-08-11T13:29:38.810Z,35.93
2022-08-11T13:30:42.054Z,35.58
2022-08-11T13:31:38.785Z,36.15
2022-08-11T13:32:38.931Z,36.46
2022-08-11T13:33:38.799Z,36.28
2022-08-11T13:34:38.772Z,36.31
2022-08-11T13:35:38.773Z,36.22
2022-08-11T13:36:38.772Z,35.90
2022-08-11T13:38:18.563Z,35.65
2022-08-11T13:38:38.750Z,35.62
2022-08-11T13:39:38.755Z,36.53
2022-08-11T13:40:55.277Z,37.09
2022-08-11T13:41:38.729Z,37.40
2022-08-11T13:42:38.747Z,37.03
2022-08-11T13:43:38.717Z,37.62
2022-08-11T13:44:38.713Z,37.64
2022-08-11T13:45:38.709Z,37.70
2022-08-11T13:46:38.710Z,37.75
2022-08-11T13:47:39.555Z,38.35
2022-08-11T13:48:38.688Z,37.91
2022-08-11T13:49:39.698Z,36.95
2022-08-11T13:50:38.681Z,36.87
2022-08-11T13:51:38.668Z,36.72
2022-08-11T13:52:38.665Z,36.85
2022-08-11T13:53:38.651Z,36.75
2022-08-11T13:54:38.660Z,36.35
2022-08-11T13:55:51.697Z,37.03
2022-08-11T13:56:38.642Z,37.46
2022-08-11T13:58:07.706Z,36.90
2022-08-11T13:58:39.887Z,37.32
2022-08-11T13:59:45.292Z,37.91
2022-08-11T14:00:38.649Z,38.04
2022-08-11T14:02:23.021Z,38.25
2022-08-11T14:02:38.654Z,38.28
2022-08-11T14:04:31.118Z,38.41
2022-08-11T14:04:38.599Z,38.63
2022-08-11T14:05:38.599Z,38.93
2022-08-11T14:06:38.591Z,38.88
2022-08-11T14:07:38.724Z,37.86
2022-08-11T14:08:40.215Z,38.19
2022-08-11T14:09:38.571Z,37.86
2022-08-11T14:10:38.573Z,36.91
2022-08-11T14:12:21.481Z,36.68
2022-08-11T14:12:38.553Z,36.56
2022-08-11T14:13:42.266Z,36.59
2022-08-11T14:14:38.545Z,36.49
2022-08-11T14:15:38.566Z,36.22
2022-08-11T14:16:38.551Z,36.22
2022-08-11T14:17:48.978Z,36.31
2022-08-11T14:18:38.544Z,36.38
2022-08-11T14:19:38.536Z,36.69
2022-08-11T14:20:40.805Z,36.95
2022-08-11T14:21:38.531Z,37.28
2022-08-11T14:22:38.513Z,36.69
2022-08-11T14:23:38.517Z,36.53
2022-08-11T14:24:38.505Z,36.84
2022-08-11T14:26:00.520Z,37.34
2022-08-11T14:26:38.514Z,37.44
2022-08-11T14:28:29.586Z,37.76
2022-08-11T14:28:44.428Z,37.51
2022-08-11T14:29:48.622Z,37.13
2022-08-11T14:30:38.504Z,37.44
2022-08-11T14:31:38.486Z,38.03
2022-08-11T14:32:52.883Z,38.07
2022-08-11T14:33:59.949Z,38.22
2022-08-11T14:34:38.478Z,38.71
2022-08-11T14:35:38.473Z,37.94
2022-08-11T14:36:38.483Z,37.72
2022-08-11T14:37:38.466Z,37.72
2022-08-11T14:38:38.455Z,37.98
2022-08-11T14:39:38.510Z,38.31
2022-08-11T14:40:38.462Z,38.30
2022-08-11T14:42:10.547Z,38.19
2022-08-11T14:42:38.525Z,38.42
2022-08-11T14:44:12.426Z,38.28
2022-08-11T14:44:38.447Z,38.03
2022-08-11T14:45:55.544Z,37.34
2022-08-11T14:46:38.434Z,37.94
2022-08-11T14:47:38.568Z,38.22
2022-08-11T14:48:38.430Z,38.83
2022-08-11T14:49:50.784Z,39.45
2022-08-11T14:50:38.436Z,39.84
2022-08-11T14:51:38.422Z,39.30
2022-08-11T14:52:38.461Z,38.65
2022-08-11T14:53:38.420Z,38.22
2022-08-11T14:54:38.417Z,38.46
2022-08-11T14:55:38.436Z,38.49
2022-08-11T14:56:38.415Z,38.90
2022-08-11T14:57:55.323Z,39.35
2022-08-11T14:58:38.420Z,39.33
2022-08-11T14:59:38.419Z,39.62
2022-08-11T15:00:38.495Z,38.90
2022-08-11T15:01:38.416Z,38.60
2022-08-11T15:02:38.404Z,38.16
2022-08-11T15:03:38.416Z,38.65
2022-08-11T15:04:38.469Z,38.04
2022-08-11T15:05:38.430Z,37.86
2022-08-11T15:06:38.401Z,36.78
2022-08-11T15:07:38.669Z,36.76
2022-08-11T15:08:38.407Z,36.84
2022-08-11T15:09:56.039Z,36.88
2022-08-11T15:10:38.411Z,36.32
2022-08-11T15:11:38.399Z,36.76
2022-08-11T15:12:38.405Z,36.80
2022-08-11T15:13:38.407Z,37.15
2022-08-11T15:14:38.405Z,36.81
2022-08-11T15:15:38.415Z,37.02
2022-08-11T15:16:38.395Z,37.81
2022-08-11T15:17:43.206Z,37.96
2022-08-11T15:18:38.394Z,37.31
2022-08-11T15:19:40.905Z,37.24
2022-08-11T15:20:38.412Z,36.88
2022-08-11T15:21:38.393Z,37.47
2022-08-11T15:22:38.389Z,38.06
2022-08-11T15:23:38.390Z,37.97
2022-08-11T15:24:38.407Z,37.57
2022-08-11T15:25:38.399Z,37.86
2022-08-11T15:26:38.387Z,37.86
2022-08-11T15:27:38.686Z,37.44
2022-08-11T15:28:38.386Z,37.29
2022-08-11T15:29:38.386Z,37.31
2022-08-11T15:30:38.403Z,37.49
2022-08-11T15:31:38.391Z,38.41
2022-08-11T15:32:38.412Z,38.95
2022-08-11T15:33:38.385Z,39.78
2022-08-11T15:34:38.382Z,40.31
2022-08-11T15:35:39.633Z,40.41
2022-08-11T15:36:38.385Z,39.81
2022-08-11T15:37:38.464Z,38.91
2022-08-11T15:38:38.386Z,37.91
2022-08-11T15:39:38.415Z,37.47
2022-08-11T15:40:38.394Z,36.88
2022-08-11T15:41:38.378Z,36.83
2022-08-11T15:42:38.382Z,36.84
2022-08-11T15:43:38.381Z,37.07
2022-08-11T15:45:01.703Z,36.38
2022-08-11T15:45:38.401Z,36.75
2022-08-11T15:46:38.385Z,36.94
2022-08-11T15:47:38.461Z,37.06
2022-08-11T15:48:38.377Z,36.87
2022-08-11T15:50:11.213Z,37.13
2022-08-11T15:50:38.389Z,37.34
2022-08-11T15:51:38.388Z,37.13
2022-08-11T15:52:38.384Z,37.15
2022-08-11T15:53:38.386Z,36.72
2022-08-11T15:54:38.376Z,36.87
2022-08-11T15:55:38.422Z,37.44
2022-08-11T15:56:38.386Z,37.09
2022-08-11T15:57:39.846Z,37.32
2022-08-11T15:58:38.384Z,37.74
2022-08-11T15:59:43.136Z,38.16
2022-08-11T16:00:38.401Z,38.79
2022-08-11T16:01:38.394Z,38.18
2022-08-11T16:02:38.384Z,38.12
2022-08-11T16:04:05.975Z,37.88
2022-08-11T16:04:38.385Z,38.00
2022-08-11T16:05:45.500Z,38.25
2022-08-11T16:06:38.385Z,38.83
2022-08-11T16:07:40.868Z,38.31
2022-08-11T16:08:38.376Z,38.76
2022-08-11T16:09:48.078Z,39.13
2022-08-11T16:10:38.396Z,39.10
2022-08-11T16:11:38.388Z,38.74
2022-08-11T16:12:38.381Z,37.49
2022-08-11T16:13:38.391Z,36.99
2022-08-11T16:14:38.377Z,36.49
2022-08-11T16:15:38.389Z,36.65
2022-08-11T16:16:38.379Z,36.32
2022-08-11T16:17:38.526Z,37.15
2022-08-11T16:18:38.378Z,37.00
2022-08-11T16:19:38.380Z,37.00
2022-08-11T16:20:38.399Z,36.84
2022-08-11T16:21:38.389Z,36.49
2022-08-11T16:22:38.388Z,36.34
2022-08-11T16:23:38.381Z,37.00
2022-08-11T16:26:38.022Z,37.15
2022-08-11T16:26:38.115Z,37.37
2022-08-11T16:27:10.439Z,37.25
2022-08-11T16:27:38.609Z,36.62
2022-08-11T16:28:38.388Z,36.29
2022-08-11T16:29:38.379Z,36.28
2022-08-11T16:30:38.393Z,36.38
2022-08-11T16:31:38.375Z,36.16
2022-08-11T16:32:38.374Z,36.07
2022-08-11T16:33:50.379Z,35.82
2022-08-11T16:34:38.372Z,36.41
2022-08-11T16:35:38.392Z,36.35
2022-08-11T16:36:38.378Z,36.15
2022-08-11T16:37:38.612Z,35.62
2022-08-11T16:38:38.370Z,35.62
2022-08-11T16:39:38.422Z,36.03
2022-08-11T16:40:38.392Z,36.16
2022-08-11T16:41:38.379Z,36.53
2022-08-11T16:43:04.584Z,36.75
2022-08-11T16:43:38.373Z,36.59
2022-08-11T16:44:38.558Z,36.35
2022-08-11T16:45:38.380Z,36.22
2022-08-11T16:46:38.365Z,36.65
2022-08-11T16:48:02.070Z,36.64
2022-08-11T16:48:39.147Z,36.78
2022-08-11T16:49:38.375Z,35.96
2022-08-11T16:50:38.383Z,35.81
2022-08-11T16:51:38.361Z,36.19
2022-08-11T16:52:38.372Z,36.84
2022-08-11T16:53:59.664Z,37.34
2022-08-11T16:54:38.358Z,37.25
2022-08-11T16:55:41.841Z,36.38
2022-08-11T16:56:38.385Z,35.74
2022-08-11T16:57:38.531Z,34.84
2022-08-11T16:58:38.363Z,34.52
2022-08-11T16:59:38.362Z,33.97
2022-08-11T17:00:38.433Z,34.03
2022-08-11T17:01:38.352Z,33.94
2022-08-11T17:02:38.359Z,34.17
2022-08-11T17:03:38.359Z,34.42
2022-08-11T17:04:38.372Z,34.54
2022-08-11T17:05:53.832Z,34.64
2022-08-11T17:06:38.338Z,34.53
2022-08-11T17:07:41.988Z,34.35
2022-08-11T17:08:38.337Z,34.00
2022-08-11T17:09:38.334Z,33.94
2022-08-11T17:10:53.688Z,33.81
2022-08-11T17:11:38.323Z,33.78
2022-08-11T17:12:38.314Z,33.78
2022-08-11T17:13:38.312Z,33.54
2022-08-11T17:14:38.305Z,33.45
2022-08-11T17:15:38.305Z,33.59
2022-08-11T17:16:38.297Z,33.47
2022-08-11T17:17:38.449Z,33.59
2022-08-11T17:18:38.292Z,33.61
2022-08-11T17:20:41.762Z,33.47
2022-08-11T17:20:43.965Z,33.06
2022-08-11T17:21:38.277Z,32.99
2022-08-11T17:22:38.260Z,32.99
2022-08-11T17:29:05.072Z,32.81
